createdAt,value
2018-07-27T00:00:59.776Z,102684.88
2018-07-27T00:03:27.345Z,102686.91
2018-07-27T00:05:55.015Z,102688.88
2018-07-27T00:08:22.979Z,102684.91
2018-07-27T00:10:50.643Z,102686.38
2018-07-27T00:13:18.307Z,102685.59
2018-07-27T00:15:46.130Z,102692.09
2018-07-27T00:18:13.806Z,102701.67
2018-07-27T00:20:41.421Z,102696.36
2018-07-27T00:23:09.528Z,102703.19
2018-07-27T00:25:37.147Z,102700.59
2018-07-27T00:28:04.884Z,102704.47
2018-07-27T00:30:32.823Z,102704.58
2018-07-27T00:33:00.599Z,102704.30
2018-07-27T00:35:28.281Z,102700.34
2018-07-27T00:37:56.102Z,102697.33
2018-07-27T00:40:23.727Z,102701.02
2018-07-27T00:42:51.329Z,102706.91
2018-07-27T00:45:19.167Z,102709.70
2018-07-27T00:47:46.744Z,102712.41
2018-07-27T00:50:14.367Z,102714.75
2018-07-27T00:52:42.271Z,102710.41
2018-07-27T00:55:09.856Z,102706.92
2018-07-27T00:57:37.396Z,102716.40
2018-07-27T01:00:05.505Z,102709.36
2018-07-27T01:02:33.137Z,102719.77
2018-07-27T01:05:00.726Z,102723.46
2018-07-27T01:07:28.456Z,102720.48
2018-07-27T01:09:56.111Z,102714.66
2018-07-27T01:12:23.745Z,102716.99
2018-07-27T01:14:51.525Z,102717.09
2018-07-27T01:17:19.091Z,102721.25
2018-07-27T01:19:46.751Z,102717.29
2018-07-27T01:22:14.555Z,102714.68
2018-07-27T01:24:42.114Z,102715.16
2018-07-27T01:27:09.798Z,102711.29
2018-07-27T01:29:37.657Z,102713.63
2018-07-27T01:32:05.293Z,102713.81
2018-07-27T01:34:34.106Z,102713.03
2018-07-27T01:37:02.042Z,102706.09
2018-07-27T01:39:29.682Z,102713.33
2018-07-27T01:41:57.341Z,102713.42
2018-07-27T01:44:25.237Z,102723.46
2018-07-27T01:46:52.896Z,102725.01
2018-07-27T01:49:20.578Z,102727.44
2018-07-27T01:51:48.382Z,102723.44
2018-07-27T01:54:16.158Z,102718.13
2018-07-27T01:56:43.760Z,102715.02
2018-07-27T01:59:11.753Z,102718.70
2018-07-27T02:01:39.430Z,102723.73
2018-07-27T02:04:07.033Z,102724.30
2018-07-27T02:06:34.822Z,102727.47
2018-07-27T02:09:02.750Z,102732.88
2018-07-27T02:11:30.395Z,102732.97
2018-07-27T02:13:58.120Z,102740.24
2018-07-27T02:16:25.805Z,102744.77
2018-07-27T02:18:53.542Z,102744.77
2018-07-27T02:21:21.454Z,102748.45
2018-07-27T02:23:49.004Z,102741.18
2018-07-27T02:26:16.669Z,102740.34
2018-07-27T02:28:44.403Z,102753.07
2018-07-27T02:31:12.042Z,102754.14
2018-07-27T02:33:39.783Z,102756.94
2018-07-27T02:36:07.803Z,102758.39
2018-07-27T02:38:35.434Z,102759.23
2018-07-27T02:41:03.094Z,102767.34
2018-07-27T02:43:31.010Z,102767.44
2018-07-27T02:45:58.606Z,102771.50
2018-07-27T02:48:26.248Z,102771.02
2018-07-27T02:50:54.080Z,102771.12
2018-07-27T02:53:21.687Z,102770.55
2018-07-27T02:55:49.380Z,102769.30
2018-07-27T02:58:17.114Z,102764.83
2018-07-27T03:00:44.754Z,102765.80
2018-07-27T03:03:12.447Z,102771.59
2018-07-27T03:05:40.286Z,102768.51
2018-07-27T03:08:07.911Z,102771.69
2018-07-27T03:10:35.514Z,102775.64
2018-07-27T03:13:09.924Z,102776.52
2018-07-27T03:15:37.579Z,102777.78
2018-07-27T03:18:05.275Z,102779.52
2018-07-27T03:20:33.186Z,102778.95
2018-07-27T03:23:00.859Z,102782.03
2018-07-27T03:25:28.552Z,102779.23
2018-07-27T03:27:56.203Z,102783.70
2018-07-27T03:30:23.829Z,102778.10
2018-07-27T03:32:51.450Z,102773.95
2018-07-27T03:35:19.280Z,102772.41
2018-07-27T03:37:47.072Z,102771.81
2018-07-27T03:40:14.688Z,102777.09
2018-07-27T03:42:42.573Z,102770.61
2018-07-27T03:45:10.294Z,102779.89
2018-07-27T03:47:37.916Z,102776.62
2018-07-27T03:50:05.858Z,102780.48
2018-07-27T03:52:33.493Z,102789.25
2018-07-27T03:55:01.053Z,102779.69
2018-07-27T03:57:28.832Z,102776.79
2018-07-27T03:59:56.414Z,102787.93
2018-07-27T04:02:24.192Z,102788.48
2018-07-27T04:04:51.875Z,102787.45
2018-07-27T04:07:19.435Z,102789.95
2018-07-27T04:09:47.135Z,102795.08
2018-07-27T04:12:14.938Z,102793.91
2018-07-27T04:14:42.524Z,102791.98
2018-07-27T04:17:10.182Z,102789.96
2018-07-27T04:19:37.975Z,102785.20
2018-07-27T04:22:05.589Z,102799.80
2018-07-27T04:24:33.156Z,102791.00
2018-07-27T04:27:00.935Z,102799.30
2018-07-27T04:29:28.592Z,102793.22
2018-07-27T04:31:56.187Z,102793.02
2018-07-27T04:34:24.042Z,102798.64
2018-07-27T04:36:51.629Z,102802.00
2018-07-27T04:39:19.568Z,102794.93
2018-07-27T04:41:47.426Z,102791.92
2018-07-27T04:44:15.063Z,102802.48
2018-07-27T04:46:42.649Z,102806.19
2018-07-27T04:49:10.491Z,102809.95
2018-07-27T04:51:38.083Z,102806.94
2018-07-27T04:54:05.837Z,102805.27
2018-07-27T04:56:33.725Z,102807.68
2018-07-27T04:59:01.526Z,102808.73
2018-07-27T05:01:29.184Z,102804.83
2018-07-27T05:03:57.346Z,102797.64
2018-07-27T05:06:25.054Z,102803.27
2018-07-27T05:08:58.200Z,102805.66
2018-07-27T05:11:26.109Z,102806.20
2018-07-27T05:13:53.710Z,102809.00
2018-07-27T05:16:21.347Z,102806.45
2018-07-27T05:18:49.224Z,102810.48
2018-07-27T05:21:16.790Z,102811.55
2018-07-27T05:23:44.361Z,102809.37
2018-07-27T05:26:12.091Z,102803.56
2018-07-27T05:28:39.737Z,102807.72
2018-07-27T05:31:07.345Z,102811.73
2018-07-27T05:33:35.227Z,102811.70
2018-07-27T05:36:02.885Z,102807.20
2018-07-27T05:38:30.528Z,102814.92
2018-07-27T05:40:58.727Z,102806.82
2018-07-27T05:43:26.353Z,102815.52
2018-07-27T05:45:53.969Z,102819.93
2018-07-27T05:48:21.784Z,102821.44
2018-07-27T05:50:49.420Z,102825.08
2018-07-27T05:53:17.095Z,102821.92
2018-07-27T05:55:44.830Z,102826.91
2018-07-27T05:58:12.409Z,102834.54
2018-07-27T06:00:40.060Z,102828.66
2018-07-27T06:03:07.954Z,102831.05
2018-07-27T06:05:35.600Z,102834.31
2018-07-27T06:08:03.297Z,102835.34
2018-07-27T06:10:31.102Z,102837.23
2018-07-27T06:15:25.749Z,102834.22
2018-07-27T06:17:53.536Z,102840.56
2018-07-27T06:20:21.200Z,102838.86
2018-07-27T06:22:48.849Z,102841.13
2018-07-27T06:25:19.494Z,102846.34
2018-07-27T06:27:47.165Z,102842.55
2018-07-27T06:30:14.774Z,102841.07
2018-07-27T06:32:42.632Z,102843.45
2018-07-27T06:35:10.289Z,102835.42
2018-07-27T06:37:38.079Z,102838.83
2018-07-27T06:40:06.132Z,102844.41
2018-07-27T06:42:33.915Z,102842.70
2018-07-27T06:45:01.587Z,102845.07
2018-07-27T06:47:29.355Z,102851.16
2018-07-27T06:49:57.005Z,102846.73
2018-07-27T06:52:24.731Z,102850.83
2018-07-27T06:54:52.807Z,102855.44
2018-07-27T06:57:20.405Z,102845.09
2018-07-27T06:59:48.057Z,102848.05
2018-07-27T07:02:15.763Z,102850.42
2018-07-27T07:04:43.395Z,102844.86
2018-07-27T07:07:11.024Z,102831.02
2018-07-27T07:09:38.843Z,102855.68
2018-07-27T07:12:06.563Z,102857.08
2018-07-27T07:14:34.240Z,102857.21
2018-07-27T07:17:02.049Z,102858.22
2018-07-27T07:19:29.759Z,102861.09
2018-07-27T07:21:57.440Z,102859.89
2018-07-27T07:24:25.172Z,102868.30
2018-07-27T07:26:53.107Z,102867.58
2018-07-27T07:29:20.693Z,102870.06
2018-07-27T07:31:48.486Z,102878.36
2018-07-27T07:34:16.154Z,102873.06
2018-07-27T07:36:43.905Z,102881.96
2018-07-27T07:39:12.519Z,102884.32
2018-07-27T07:41:40.813Z,102879.52
2018-07-27T07:44:09.094Z,102883.72
2018-07-27T07:46:37.291Z,102885.72
2018-07-27T07:49:06.049Z,102889.56
2018-07-27T07:51:34.913Z,102884.98
2018-07-27T07:54:02.739Z,102883.90
2018-07-27T07:56:30.807Z,102900.00
2018-07-27T07:58:58.435Z,102900.12
2018-07-27T08:01:26.167Z,102891.34
2018-07-27T08:03:53.843Z,102891.58
2018-07-27T08:06:21.556Z,102889.61
2018-07-27T08:08:49.316Z,102892.57
2018-07-27T08:11:16.979Z,102883.39
2018-07-27T08:13:44.562Z,102880.09
2018-07-27T08:16:12.483Z,102883.45
2018-07-27T08:18:40.084Z,102888.53
2018-07-27T08:21:07.829Z,102886.67
2018-07-27T08:23:42.419Z,102888.02
2018-07-27T08:26:32.055Z,102893.50
2018-07-27T08:28:59.925Z,102888.28
2018-07-27T08:31:27.523Z,102888.91
2018-07-27T08:33:55.964Z,102894.59
2018-07-27T08:36:23.787Z,102890.38
2018-07-27T08:38:51.414Z,102889.52
2018-07-27T08:41:19.082Z,102889.62
2018-07-27T08:43:46.946Z,102887.40
2018-07-27T08:46:15.035Z,102892.83
2018-07-27T08:48:42.659Z,102894.95
2018-07-27T08:51:10.369Z,102886.15
2018-07-27T08:53:38.147Z,102891.22
2018-07-27T08:56:06.998Z,102889.60
2018-07-27T08:58:35.027Z,102890.23
2018-07-27T09:01:02.911Z,102892.22
2018-07-27T09:03:30.611Z,102891.59
2018-07-27T09:05:58.453Z,102898.16
2018-07-27T09:08:26.234Z,102898.66
2018-07-27T09:10:53.912Z,102892.06
2018-07-27T09:13:21.689Z,102892.43
2018-07-27T09:15:49.564Z,102888.17
2018-07-27T09:18:17.296Z,102884.92
2018-07-27T09:20:45.141Z,102884.80
2018-07-27T09:24:15.874Z,102884.76
2018-07-27T09:26:43.654Z,102892.06
2018-07-27T09:29:11.227Z,102888.69
2018-07-27T09:31:38.981Z,102887.93
2018-07-27T09:34:06.715Z,102893.36
2018-07-27T09:36:34.377Z,102884.44
2018-07-27T09:39:02.230Z,102894.97
2018-07-27T09:41:29.936Z,102877.48
2018-07-27T09:43:57.545Z,102891.44
2018-07-27T09:46:25.500Z,102893.36
2018-07-27T09:48:54.067Z,102886.60
2018-07-27T09:51:22.919Z,102884.16
2018-07-27T09:53:50.897Z,102888.02
2018-07-27T09:56:18.693Z,102892.80
2018-07-27T09:58:46.327Z,102890.08
2018-07-27T10:01:19.771Z,102890.59
2018-07-27T10:03:47.453Z,102883.86
2018-07-27T10:06:15.122Z,102881.00
2018-07-27T10:08:42.856Z,102883.55
2018-07-27T10:11:10.668Z,102884.83
2018-07-27T10:13:38.308Z,102885.66
2018-07-27T10:16:06.574Z,102876.82
2018-07-27T10:18:34.411Z,102869.88
2018-07-27T10:21:02.062Z,102879.34
2018-07-27T10:23:30.028Z,102866.16
2018-07-27T10:25:57.928Z,102875.42
2018-07-27T10:28:25.538Z,102864.77
2018-07-27T10:30:53.236Z,102876.28
2018-07-27T10:33:20.973Z,102877.57
2018-07-27T10:35:48.580Z,102880.88
2018-07-27T10:38:16.426Z,102877.30
2018-07-27T10:40:44.206Z,102878.77
2018-07-27T10:43:11.809Z,102881.77
2018-07-27T10:45:39.591Z,102886.08
2018-07-27T10:48:07.397Z,102881.83
2018-07-27T10:50:35.120Z,102878.34
2018-07-27T10:53:02.795Z,102881.30
2018-07-27T10:55:30.522Z,102877.11
2018-07-27T10:57:58.110Z,102870.67
2018-07-27T11:00:25.889Z,102879.16
2018-07-27T11:02:53.666Z,102879.34
2018-07-27T11:05:21.247Z,102875.56
2018-07-27T11:07:49.013Z,102874.72
2018-07-27T11:10:16.929Z,102869.38
2018-07-27T11:12:44.656Z,102881.27
2018-07-27T11:15:12.484Z,102880.47
2018-07-27T11:17:40.346Z,102875.88
2018-07-27T11:20:08.496Z,102872.64
2018-07-27T11:22:36.348Z,102857.59
2018-07-27T11:25:04.373Z,102871.03
2018-07-27T11:27:31.994Z,102869.00
2018-07-27T11:29:59.778Z,102873.89
2018-07-27T11:32:27.458Z,102875.78
2018-07-27T11:34:55.042Z,102869.78
2018-07-27T11:37:22.952Z,102868.91
2018-07-27T11:39:50.676Z,102866.16
2018-07-27T11:42:18.388Z,102868.74
2018-07-27T11:44:46.068Z,102863.06
2018-07-27T11:47:13.903Z,102870.44
2018-07-27T11:49:41.564Z,102870.59
2018-07-27T11:52:09.346Z,102867.02
2018-07-27T11:54:37.030Z,102868.40
2018-07-27T11:57:04.879Z,102860.86
2018-07-27T11:59:32.802Z,102859.11
2018-07-27T12:02:00.628Z,102856.19
2018-07-27T12:04:28.176Z,102861.14
2018-07-27T12:06:55.973Z,102851.67
2018-07-27T12:09:23.837Z,102853.44
2018-07-27T12:11:51.431Z,102845.89
2018-07-27T12:14:19.329Z,102838.14
2018-07-27T12:16:47.080Z,102838.14
2018-07-27T12:19:14.682Z,102835.57
2018-07-27T12:21:42.670Z,102828.58
2018-07-27T12:24:10.420Z,102831.17
2018-07-27T12:26:37.983Z,102835.34
2018-07-27T12:29:05.637Z,102835.19
2018-07-27T12:31:33.504Z,102837.98
2018-07-27T12:34:01.116Z,102833.37
2018-07-27T12:36:28.962Z,102834.20
2018-07-27T12:38:56.799Z,102833.87
2018-07-27T12:41:24.395Z,102833.20
2018-07-27T12:43:52.295Z,102810.98
2018-07-27T12:46:20.253Z,102808.44
2018-07-27T12:48:47.910Z,102825.20
2018-07-27T12:51:15.695Z,102823.81
2018-07-27T12:53:43.476Z,102825.78
2018-07-27T12:56:11.098Z,102821.59
2018-07-27T12:58:38.885Z,102822.91
2018-07-27T13:01:06.926Z,102824.94
2018-07-27T13:03:34.526Z,102830.20
2018-07-27T13:06:02.296Z,102820.65
2018-07-27T13:08:30.144Z,102826.80
2018-07-27T13:10:57.765Z,102825.19
2018-07-27T13:13:25.530Z,102825.17
2018-07-27T13:15:53.312Z,102828.75
2018-07-27T13:18:20.906Z,102827.14
2018-07-27T13:20:51.462Z,102823.97
2018-07-27T13:23:19.940Z,102827.67
2018-07-27T13:26:25.406Z,102826.28
2018-07-27T13:28:46.341Z,102823.10
2018-07-27T13:31:13.982Z,102814.94
2018-07-27T13:34:00.766Z,102817.57
2018-07-27T13:36:28.417Z,102809.09
2018-07-27T13:38:56.076Z,102816.92
2018-07-27T13:41:24.117Z,102819.65
2018-07-27T13:43:51.875Z,102822.44
2018-07-27T13:46:19.477Z,102819.24
2018-07-27T13:48:47.460Z,102820.50
2018-07-27T13:51:15.084Z,102817.68
2018-07-27T13:53:42.680Z,102817.22
2018-07-27T13:56:10.497Z,102814.20
2018-07-27T13:58:38.073Z,102807.39
2018-07-27T14:01:05.738Z,102803.54
2018-07-27T14:03:33.559Z,102804.71
2018-07-27T14:06:01.164Z,102795.91
2018-07-27T14:08:28.766Z,102800.03
2018-07-27T14:10:56.499Z,102801.55
2018-07-27T14:13:24.152Z,102803.36
2018-07-27T14:15:51.786Z,102797.41
2018-07-27T14:18:19.698Z,102798.65
2018-07-27T14:20:47.296Z,102802.77
2018-07-27T14:23:14.874Z,102805.11
2018-07-27T14:25:43.137Z,102811.00
2018-07-27T14:28:11.009Z,102804.22
2018-07-27T14:30:39.180Z,102804.16
2018-07-27T14:33:07.697Z,102804.59
2018-07-27T14:35:35.415Z,102802.80
2018-07-27T14:38:03.187Z,102804.59
2018-07-27T14:40:31.242Z,102804.40
2018-07-27T14:42:58.878Z,102801.56
2018-07-27T14:45:26.931Z,102797.75
2018-07-27T14:47:54.867Z,102799.76
2018-07-27T14:50:22.530Z,102797.98
2018-07-27T14:53:21.077Z,102801.99
2018-07-27T14:55:48.725Z,102802.08
2018-07-27T14:58:16.349Z,102794.16
2018-07-27T15:00:44.245Z,102792.78
2018-07-27T15:03:11.858Z,102796.16
2018-07-27T15:05:39.481Z,102793.42
2018-07-27T15:08:07.351Z,102797.91
2018-07-27T15:10:35.045Z,102794.16
2018-07-27T15:13:02.681Z,102795.59
2018-07-27T15:15:30.571Z,102797.05
2018-07-27T15:17:58.198Z,102789.82
2018-07-27T15:20:25.844Z,102794.16
2018-07-27T15:22:53.891Z,102793.00
2018-07-27T15:25:21.512Z,102797.45
2018-07-27T15:27:49.158Z,102802.30
2018-07-27T15:30:17.122Z,102797.41
2018-07-27T15:32:44.712Z,102798.97
2018-07-27T15:35:12.359Z,102795.10
2018-07-27T15:37:40.418Z,102792.91
2018-07-27T15:40:08.073Z,102796.23
2018-07-27T15:42:35.670Z,102792.86
2018-07-27T15:45:03.580Z,102794.92
2018-07-27T15:47:31.167Z,102786.65
2018-07-27T15:49:58.847Z,102788.65
2018-07-27T15:52:26.834Z,102787.08
2018-07-27T15:54:54.438Z,102773.51
2018-07-27T15:57:22.056Z,102780.64
2018-07-27T15:59:49.942Z,102779.31
2018-07-27T16:02:17.536Z,102770.64
2018-07-27T16:04:45.150Z,102772.16
2018-07-27T16:07:12.960Z,102777.16
2018-07-27T16:09:40.562Z,102767.91
2018-07-27T16:12:08.174Z,102764.59
2018-07-27T16:14:36.289Z,102775.05
2018-07-27T16:17:03.918Z,102776.77
2018-07-27T16:22:30.612Z,102770.17
2018-07-27T16:24:58.216Z,102767.68
2018-07-27T16:27:25.885Z,102779.23
2018-07-27T16:29:53.799Z,102777.78
2018-07-27T16:32:21.384Z,102787.05
2018-07-27T16:34:49.203Z,102793.35
2018-07-27T16:37:16.962Z,102783.67
2018-07-27T16:39:44.587Z,102789.73
2018-07-27T16:42:12.358Z,102793.06
2018-07-27T16:44:40.254Z,102789.68
2018-07-27T16:47:07.877Z,102792.65
2018-07-27T16:49:35.619Z,102796.61
2018-07-27T16:52:03.437Z,102793.85
2018-07-27T16:54:31.001Z,102796.54
2018-07-27T16:56:58.802Z,102794.52
2018-07-27T16:59:26.473Z,102796.98
2018-07-27T17:01:54.077Z,102800.48
2018-07-27T17:04:21.841Z,102801.05
2018-07-27T17:06:49.527Z,102796.14
2018-07-27T17:09:17.167Z,102794.95
2018-07-27T17:11:44.964Z,102793.66
2018-07-27T17:14:12.933Z,102797.16
2018-07-27T17:16:40.570Z,102789.77
2018-07-27T17:19:08.337Z,102794.28
2018-07-27T17:21:36.255Z,102796.56
2018-07-27T17:24:04.058Z,102799.43
2018-07-27T17:26:31.821Z,102800.13
2018-07-27T17:28:59.686Z,102799.17
2018-07-27T17:31:27.295Z,102796.14
2018-07-27T17:33:55.038Z,102810.57
2018-07-27T17:36:22.767Z,102810.10
2018-07-27T17:38:50.508Z,102818.70
2018-07-27T17:41:18.273Z,102812.50
2018-07-27T17:43:46.102Z,102812.91
2018-07-27T17:46:13.756Z,102809.08
2018-07-27T17:48:41.434Z,102810.72
2018-07-27T17:51:09.250Z,102796.77
2018-07-27T17:53:36.909Z,102805.80
2018-07-27T17:56:04.910Z,102813.77
2018-07-27T17:58:32.665Z,102819.72
2018-07-27T18:01:00.376Z,102815.15
2018-07-27T18:03:28.181Z,102805.96
2018-07-27T18:05:55.842Z,102810.33
2018-07-27T18:08:23.447Z,102811.60
2018-07-27T18:10:51.214Z,102819.19
2018-07-27T18:13:19.125Z,102821.47
2018-07-27T18:15:46.921Z,102816.02
2018-07-27T18:18:14.701Z,102822.75
2018-07-27T18:20:42.770Z,102810.28
2018-07-27T18:23:10.385Z,102818.48
2018-07-27T18:28:20.432Z,102805.65
2018-07-27T18:30:48.075Z,102810.13
2018-07-27T18:33:15.757Z,102811.86
2018-07-27T18:35:43.556Z,102814.70
2018-07-27T18:38:11.165Z,102821.55
2018-07-27T18:40:38.934Z,102826.52
2018-07-27T18:43:06.824Z,102825.53
2018-07-27T18:45:34.433Z,102821.70
2018-07-27T18:48:02.186Z,102828.54
2018-07-27T18:50:30.066Z,102827.56
2018-07-27T18:52:57.722Z,102833.87
2018-07-27T18:55:25.626Z,102836.63
2018-07-27T18:57:53.540Z,102836.73
2018-07-27T19:00:21.182Z,102832.39
2018-07-27T19:02:49.063Z,102839.97
2018-07-27T19:05:16.914Z,102840.69
2018-07-27T19:07:44.485Z,102846.23
2018-07-27T19:10:12.296Z,102846.72
2018-07-27T19:12:39.958Z,102853.02
2018-07-27T19:15:08.188Z,102845.22
2018-07-27T19:17:36.043Z,102850.42
2018-07-27T19:20:04.117Z,102847.07
2018-07-27T19:22:31.710Z,102846.95
2018-07-27T19:24:59.540Z,102844.84
2018-07-27T19:27:27.222Z,102843.56
2018-07-27T19:29:54.830Z,102839.95
2018-07-27T19:32:22.870Z,102845.28
2018-07-27T19:34:50.519Z,102838.59
2018-07-27T19:37:18.193Z,102848.92
2018-07-27T19:39:46.112Z,102851.13
2018-07-27T19:42:13.920Z,102848.88
2018-07-27T19:44:41.573Z,102848.75
2018-07-27T19:47:09.902Z,102847.23
2018-07-27T19:49:37.680Z,102843.14
2018-07-27T19:52:05.332Z,102845.33
2018-07-27T19:54:33.191Z,102839.00
2018-07-27T19:57:01.103Z,102851.98
2018-07-27T19:59:28.728Z,102839.45
2018-07-27T20:01:56.531Z,102840.28
2018-07-27T20:04:24.308Z,102838.62
2018-07-27T20:06:51.976Z,102837.13
2018-07-27T20:09:19.874Z,102844.15
2018-07-27T20:11:47.782Z,102846.98
2018-07-27T20:14:15.424Z,102840.02
2018-07-27T20:16:44.159Z,102841.58
2018-07-27T20:19:11.891Z,102837.24
2018-07-27T20:21:39.635Z,102835.00
2018-07-27T20:24:07.461Z,102835.12
2018-07-27T20:26:35.273Z,102839.83
2018-07-27T20:29:02.929Z,102833.98
2018-07-27T20:31:30.793Z,102829.77
2018-07-27T20:33:58.405Z,102830.37
2018-07-27T20:36:26.320Z,102834.90
2018-07-27T20:38:54.079Z,102834.39
2018-07-27T20:41:21.672Z,102830.14
2018-07-27T20:43:49.309Z,102834.78
2018-07-27T20:46:17.512Z,102835.59
2018-07-27T20:48:45.240Z,102838.94
2018-07-27T20:51:12.817Z,102824.70
2018-07-27T20:53:40.730Z,102822.53
2018-07-27T20:56:23.537Z,102826.58
2018-07-27T20:58:51.468Z,102822.31
2018-07-27T21:01:19.215Z,102822.61
2018-07-27T21:03:46.836Z,102819.94
2018-07-27T21:06:14.650Z,102802.66
2018-07-27T21:08:42.301Z,102821.33
2018-07-27T21:11:09.992Z,102821.15
2018-07-27T21:13:37.895Z,102817.03
2018-07-27T21:16:05.546Z,102817.84
2018-07-27T21:18:33.284Z,102818.64
2018-07-27T21:21:01.116Z,102815.41
2018-07-27T21:23:28.693Z,102809.69
2018-07-27T21:25:56.450Z,102820.28
2018-07-27T21:28:24.363Z,102815.95
2018-07-27T21:30:51.969Z,102816.64
2018-07-27T21:33:19.583Z,102812.79
2018-07-27T21:35:47.580Z,102809.81
2018-07-27T21:38:15.171Z,102809.92
2018-07-27T21:40:42.758Z,102813.22
2018-07-27T21:43:25.152Z,102809.73
2018-07-27T21:45:52.895Z,102807.81
2018-07-27T21:48:20.512Z,102813.67
2018-07-27T21:50:48.617Z,102815.64
2018-07-27T21:53:16.250Z,102812.73
2018-07-27T21:55:43.271Z,102812.84
2018-07-27T21:58:11.209Z,102814.70
2018-07-27T22:00:38.311Z,102813.83
2018-07-27T22:03:05.893Z,102815.66
2018-07-27T22:05:33.384Z,102811.22
2018-07-27T22:08:00.356Z,102809.49
2018-07-27T22:10:27.345Z,102801.94
2018-07-27T22:12:55.388Z,102796.14
2018-07-27T22:15:23.666Z,102792.63
2018-07-27T22:17:50.813Z,102791.67
2018-07-27T22:20:18.907Z,102792.63
2018-07-27T22:22:47.218Z,102790.49
2018-07-27T22:25:14.946Z,102786.05
2018-07-27T22:27:43.322Z,102788.77
2018-07-27T22:30:11.257Z,102783.82
2018-07-27T22:32:38.266Z,102780.73
2018-07-27T22:35:05.766Z,102788.09
2018-07-27T22:37:32.761Z,102787.36
2018-07-27T22:39:59.737Z,102782.98
2018-07-27T22:42:27.117Z,102789.00
2018-07-27T22:44:54.081Z,102788.36
2018-07-27T22:47:21.237Z,102787.48
2018-07-27T22:49:48.631Z,102787.95
2018-07-27T22:52:15.661Z,102783.04
2018-07-27T22:54:42.682Z,102784.98
2018-07-27T22:57:09.977Z,102788.67
2018-07-27T22:59:37.025Z,102787.31
2018-07-27T23:02:04.033Z,102791.48
2018-07-27T23:04:31.359Z,102786.17
2018-07-27T23:06:58.369Z,102778.98
2018-07-27T23:09:25.353Z,102781.80
2018-07-27T23:11:52.844Z,102777.10
2018-07-27T23:14:19.886Z,102774.86
2018-07-27T23:16:46.891Z,102770.90
2018-07-27T23:19:14.066Z,102774.19
2018-07-27T23:21:41.783Z,102765.80
2018-07-27T23:24:09.425Z,102771.22
2018-07-27T23:26:37.386Z,102768.61
2018-07-27T23:29:05.124Z,102767.36
2018-07-27T23:31:32.765Z,102765.90
2018-07-27T23:34:00.776Z,102761.94
2018-07-27T23:36:28.370Z,102768.23
2018-07-27T23:38:55.963Z,102772.20
2018-07-27T23:41:24.013Z,102774.03
2018-07-27T23:43:51.804Z,102769.48
2018-07-27T23:46:19.425Z,102768.03
2018-07-27T23:48:47.528Z,102770.13
2018-07-27T23:51:15.140Z,102760.64
2018-07-27T23:53:42.779Z,102760.27
2018-07-27T23:56:10.772Z,102761.15
2018-07-27T23:58:38.394Z,102757.19
